sensor_id;sensor_type;location;lat;lon;timestamp;pressure;altitude;pressure_sealevel;temperature;humidity
9423;BME280;65863;49.506;10.400;2023-12-20T00:02:01;97980.03;;;4.65;100.00
9423;BME280;65863;49.506;10.400;2023-12-20T00:04:46;97974.19;;;4.69;100.00
9423;BME280;65863;49.506;10.400;2023-12-20T00:07:30;97996.09;;;4.84;100.00
9423;BME280;65863;49.506;10.400;2023-12-20T00:10:14;97978.22;;;4.74;100.00
9423;BME280;65863;49.506;10.400;2023-12-20T00:12:58;97981.25;;;4.70;100.00
9423;BME280;65863;49.506;10.400;2023-12-20T00:15:42;97977.75;;;4.64;100.00
9423;BME280;65863;49.506;10.400;2023-12-20T00:18:26;97974.97;;;4.64;100.00
9423;BME280;65863;49.506;10.400;2023-12-20T00:21:10;97986.56;;;4.74;100.00
9423;BME280;65863;49.506;10.400;2023-12-20T00:23:55;97964.69;;;4.47;100.00
9423;BME280;65863;49.506;10.400;2023-12-20T00:26:38;97969.97;;;4.51;100.00
9423;BME280;65863;49.506;10.400;2023-12-20T00:29:23;97954.38;;;4.37;100.00
9423;BME280;65863;49.506;10.400;2023-12-20T00:32:07;97990.13;;;4.63;100.00
9423;BME280;65863;49.506;10.400;2023-12-20T00:34:51;97974.28;;;4.46;100.00
9423;BME280;65863;49.506;10.400;2023-12-20T00:37:35;97937.53;;;4.18;100.00
9423;BME280;65863;49.506;10.400;2023-12-20T00:40:19;97974.56;;;4.43;100.00
9423;BME280;65863;49.506;10.400;2023-12-20T00:43:03;97962.75;;;4.31;100.00
9423;BME280;65863;49.506;10.400;2023-12-20T00:45:47;97966.75;;;4.41;100.00
9423;BME280;65863;49.506;10.400;2023-12-20T00:48:31;97963.22;;;4.35;100.00
9423;BME280;65863;49.506;10.400;2023-12-20T00:51:15;97956.41;;;4.30;100.00
9423;BME280;65863;49.506;10.400;2023-12-20T00:53:59;97959.44;;;4.38;100.00
9423;BME280;65863;49.506;10.400;2023-12-20T00:56:43;97973.53;;;4.46;100.00
9423;BME280;65863;49.506;10.400;2023-12-20T00:59:27;97967.22;;;4.45;100.00
9423;BME280;65863;49.506;10.400;2023-12-20T01:02:11;97954.38;;;4.42;100.00
9423;BME280;65863;49.506;10.400;2023-12-20T01:04:55;97917.34;;;4.11;100.00
9423;BME280;65863;49.506;10.400;2023-12-20T01:07:39;97943.75;;;4.35;100.00
9423;BME280;65863;49.506;10.400;2023-12-20T01:10:23;97949.06;;;4.39;100.00
9423;BME280;65863;49.506;10.400;2023-12-20T01:13:07;97908.50;;;4.13;100.00
9423;BME280;65863;49.506;10.400;2023-12-20T01:15:52;97922.88;;;4.23;100.00
9423;BME280;65863;49.506;10.400;2023-12-20T01:18:36;97927.91;;;4.24;100.00
9423;BME280;65863;49.506;10.400;2023-12-20T01:21:20;97929.88;;;4.29;100.00
9423;BME280;65863;49.506;10.400;2023-12-20T01:24:04;97950.59;;;4.34;100.00
9423;BME280;65863;49.506;10.400;2023-12-20T01:26:48;97927.41;;;4.20;100.00
9423;BME280;65863;49.506;10.400;2023-12-20T01:29:32;97957.41;;;4.33;100.00
9423;BME280;65863;49.506;10.400;2023-12-20T01:32:16;97936.47;;;4.26;100.00
9423;BME280;65863;49.506;10.400;2023-12-20T01:35:00;97916.38;;;4.03;100.00
9423;BME280;65863;49.506;10.400;2023-12-20T01:37:44;97935.00;;;4.20;100.00
9423;BME280;65863;49.506;10.400;2023-12-20T01:40:28;97935.03;;;4.14;100.00
9423;BME280;65863;49.506;10.400;2023-12-20T01:43:12;97921.16;;;4.08;100.00
9423;BME280;65863;49.506;10.400;2023-12-20T01:46:00;97922.13;;;4.11;100.00
9423;BME280;65863;49.506;10.400;2023-12-20T01:48:50;97922.94;;;4.00;100.00
9423;BME280;65863;49.506;10.400;2023-12-20T01:51:35;97916.41;;;3.92;100.00
9423;BME280;65863;49.506;10.400;2023-12-20T01:54:20;97926.75;;;3.97;100.00
9423;BME280;65863;49.506;10.400;2023-12-20T01:57:05;97954.97;;;4.07;100.00
9423;BME280;65863;49.506;10.400;2023-12-20T01:59:50;97919.00;;;3.78;100.00
9423;BME280;65863;49.506;10.400;2023-12-20T02:02:34;97910.38;;;3.76;100.00
9423;BME280;65863;49.506;10.400;2023-12-20T02:05:21;97931.31;;;3.89;100.00
9423;BME280;65863;49.506;10.400;2023-12-20T02:08:06;97911.91;;;3.77;100.00
9423;BME280;65863;49.506;10.400;2023-12-20T02:10:50;97905.13;;;3.67;100.00
9423;BME280;65863;49.506;10.400;2023-12-20T02:13:34;97904.38;;;3.61;100.00
9423;BME280;65863;49.506;10.400;2023-12-20T02:16:18;97898.31;;;3.57;100.00
9423;BME280;65863;49.506;10.400;2023-12-20T02:19:04;97895.53;;;3.57;100.00
9423;BME280;65863;49.506;10.400;2023-12-20T02:22:13;97920.50;;;3.74;100.00
9423;BME280;65863;49.506;10.400;2023-12-20T02:24:57;97884.22;;;3.43;100.00
9423;BME280;65863;49.506;10.400;2023-12-20T02:27:41;97885.75;;;3.44;100.00
9423;BME280;65863;49.506;10.400;2023-12-20T02:30:25;97894.09;;;3.39;100.00
9423;BME280;65863;49.506;10.400;2023-12-20T02:33:12;97906.91;;;3.59;100.00
9423;BME280;65863;49.506;10.400;2023-12-20T02:35:57;97908.16;;;3.58;100.00
9423;BME280;65863;49.506;10.400;2023-12-20T02:38:41;97892.03;;;3.45;100.00
9423;BME280;65863;49.506;10.400;2023-12-20T02:41:25;97858.03;;;3.22;100.00
9423;BME280;65863;49.506;10.400;2023-12-20T02:44:09;97911.97;;;3.55;100.00
9423;BME280;65863;49.506;10.400;2023-12-20T02:46:54;97906.66;;;3.51;100.00
9423;BME280;65863;49.506;10.400;2023-12-20T02:49:38;97895.81;;;3.48;100.00
9423;BME280;65863;49.506;10.400;2023-12-20T02:52:25;97922.28;;;3.60;100.00
9423;BME280;65863;49.506;10.400;2023-12-20T02:55:09;97881.22;;;3.30;100.00
9423;BME280;65863;49.506;10.400;2023-12-20T02:57:53;97912.72;;;3.55;100.00
9423;BME280;65863;49.506;10.400;2023-12-20T03:00:37;97920.28;;;3.60;100.00
9423;BME280;65863;49.506;10.400;2023-12-20T03:03:21;97855.28;;;3.16;100.00
9423;BME280;65863;49.506;10.400;2023-12-20T03:06:05;97906.94;;;3.42;100.00
9423;BME280;65863;49.506;10.400;2023-12-20T03:08:49;97858.03;;;3.16;100.00
9423;BME280;65863;49.506;10.400;2023-12-20T03:11:33;97926.34;;;3.59;100.00
9423;BME280;65863;49.506;10.400;2023-12-20T03:14:17;97927.34;;;3.56;100.00
9423;BME280;65863;49.506;10.400;2023-12-20T03:17:01;97910.22;;;3.46;100.00
9423;BME280;65863;49.506;10.400;2023-12-20T03:19:45;97931.63;;;3.57;100.00
9423;BME280;65863;49.506;10.400;2023-12-20T03:22:29;97903.88;;;3.45;100.00
9423;BME280;65863;49.506;10.400;2023-12-20T03:25:13;97910.97;;;3.47;100.00
9423;BME280;65863;49.506;10.400;2023-12-20T03:27:57;97922.28;;;3.54;100.00
9423;BME280;65863;49.506;10.400;2023-12-20T03:30:41;97929.63;;;3.52;100.00
9423;BME280;65863;49.506;10.400;2023-12-20T03:33:25;97913.50;;;3.44;100.00
9423;BME280;65863;49.506;10.400;2023-12-20T03:36:09;97870.91;;;3.19;100.00
9423;BME280;65863;49.506;10.400;2023-12-20T03:38:53;97944.00;;;3.56;100.00
9423;BME280;65863;49.506;10.400;2023-12-20T03:41:38;97926.59;;;3.50;100.00
9423;BME280;65863;49.506;10.400;2023-12-20T03:44:22;97919.53;;;3.37;100.00
9423;BME280;65863;49.506;10.400;2023-12-20T03:47:06;97949.81;;;3.58;100.00
9423;BME280;65863;49.506;10.400;2023-12-20T03:49:50;97921.84;;;3.39;100.00
9423;BME280;65863;49.506;10.400;2023-12-20T03:52:34;97928.34;;;3.53;100.00
9423;BME280;65863;49.506;10.400;2023-12-20T03:55:18;97919.53;;;3.37;100.00
9423;BME280;65863;49.506;10.400;2023-12-20T03:58:02;97911.22;;;3.37;100.00
9423;BME280;65863;49.506;10.400;2023-12-20T04:00:46;97935.94;;;3.47;100.00
9423;BME280;65863;49.506;10.400;2023-12-20T04:03:30;97900.63;;;3.24;100.00
9423;BME280;65863;49.506;10.400;2023-12-20T04:06:20;97928.13;;;3.39;100.00
9423;BME280;65863;49.506;10.400;2023-12-20T04:09:04;97924.09;;;3.40;100.00
9423;BME280;65863;49.506;10.400;2023-12-20T04:11:48;97945.00;;;3.47;100.00
9423;BME280;65863;49.506;10.400;2023-12-20T04:14:32;97871.41;;;3.06;100.00
9423;BME280;65863;49.506;10.400;2023-12-20T04:17:17;97897.34;;;3.15;100.00
9423;BME280;65863;49.506;10.400;2023-12-20T04:20:01;97943.25;;;3.44;100.00
9423;BME280;65863;49.506;10.400;2023-12-20T04:22:45;97906.97;;;3.14;100.00
9423;BME280;65863;49.506;10.400;2023-12-20T04:25:30;97925.38;;;3.28;100.00
9423;BME280;65863;49.506;10.400;2023-12-20T04:28:13;97901.16;;;3.17;100.00
9423;BME280;65863;49.506;10.400;2023-12-20T04:30:57;97903.41;;;3.13;100.00
9423;BME280;65863;49.506;10.400;2023-12-20T04:34:20;97891.81;;;3.09;100.00
9423;BME280;65863;49.506;10.400;2023-12-20T04:37:04;97922.59;;;3.28;100.00
9423;BME280;65863;49.506;10.400;2023-12-20T04:39:48;97898.66;;;3.02;100.00
9423;BME280;65863;49.506;10.400;2023-12-20T04:42:32;97911.00;;;3.01;100.00
9423;BME280;65863;49.506;10.400;2023-12-20T04:45:16;97921.56;;;3.08;100.00
9423;BME280;65863;49.506;10.400;2023-12-20T04:48:02;97957.91;;;3.33;100.00
9423;BME280;65863;49.506;10.400;2023-12-20T04:50:47;97953.84;;;3.23;100.00
9423;BME280;65863;49.506;10.400;2023-12-20T04:53:30;97962.94;;;3.23;100.00
9423;BME280;65863;49.506;10.400;2023-12-20T04:56:15;97939.22;;;3.05;100.00
9423;BME280;65863;49.506;10.400;2023-12-20T04:58:58;97922.81;;;3.02;100.00
9423;BME280;65863;49.506;10.400;2023-12-20T05:01:43;97926.88;;;3.12;100.00
9423;BME280;65863;49.506;10.400;2023-12-20T05:04:26;97958.66;;;3.28;100.00
9423;BME280;65863;49.506;10.400;2023-12-20T05:07:10;97943.03;;;3.14;100.00
9423;BME280;65863;49.506;10.400;2023-12-20T05:09:54;97959.41;;;3.34;100.00
9423;BME280;65863;49.506;10.400;2023-12-20T05:12:38;97965.97;;;3.31;100.00
9423;BME280;65863;49.506;10.400;2023-12-20T05:15:22;97931.16;;;3.07;100.00
9423;BME280;65863;49.506;10.400;2023-12-20T05:18:07;97965.47;;;3.27;100.00
9423;BME280;65863;49.506;10.400;2023-12-20T05:20:51;97973.28;;;3.28;100.00
9423;BME280;65863;49.506;10.400;2023-12-20T05:23:35;97967.50;;;3.32;100.00
9423;BME280;65863;49.506;10.400;2023-12-20T05:26:19;97960.41;;;3.31;100.00
9423;BME280;65863;49.506;10.400;2023-12-20T05:29:03;97976.81;;;3.52;100.00
9423;BME280;65863;49.506;10.400;2023-12-20T05:31:47;97965.97;;;3.42;100.00
9423;BME280;65863;49.506;10.400;2023-12-20T05:34:31;97979.31;;;3.55;100.00
9423;BME280;65863;49.506;10.400;2023-12-20T05:37:15;97932.66;;;3.20;100.00
9423;BME280;65863;49.506;10.400;2023-12-20T05:40:02;97990.69;;;3.52;100.00
9423;BME280;65863;49.506;10.400;2023-12-20T05:42:46;97956.38;;;3.21;100.00
9423;BME280;65863;49.506;10.400;2023-12-20T05:45:30;98016.94;;;3.62;100.00
9423;BME280;65863;49.506;10.400;2023-12-20T05:48:14;98006.84;;;3.59;100.00
9423;BME280;65863;49.506;10.400;2023-12-20T05:50:58;97979.84;;;3.31;100.00
9423;BME280;65863;49.506;10.400;2023-12-20T05:53:42;97994.97;;;3.47;100.00
9423;BME280;65863;49.506;10.400;2023-12-20T05:56:26;98004.31;;;3.55;100.00
9423;BME280;65863;49.506;10.400;2023-12-20T05:59:10;97985.91;;;3.47;100.00
9423;BME280;65863;49.506;10.400;2023-12-20T06:01:54;97992.69;;;3.51;100.00
9423;BME280;65863;49.506;10.400;2023-12-20T06:04:42;98009.63;;;3.59;100.00
9423;BME280;65863;49.506;10.400;2023-12-20T06:07:26;97999.78;;;3.47;100.00
9423;BME280;65863;49.506;10.400;2023-12-20T06:10:10;98010.88;;;3.58;100.00
9423;BME280;65863;49.506;10.400;2023-12-20T06:12:54;98019.94;;;3.64;100.00
9423;BME280;65863;49.506;10.400;2023-12-20T06:15:40;97960.19;;;3.18;100.00
9423;BME280;65863;49.506;10.400;2023-12-20T06:18:24;98012.41;;;3.53;100.00
9423;BME280;65863;49.506;10.400;2023-12-20T06:21:08;97949.31;;;3.14;100.00
9423;BME280;65863;49.506;10.400;2023-12-20T06:23:56;98012.63;;;3.50;100.00
9423;BME280;65863;49.506;10.400;2023-12-20T06:26:40;98022.72;;;3.64;100.00
9423;BME280;65863;49.506;10.400;2023-12-20T06:29:24;97994.72;;;3.39;100.00
9423;BME280;65863;49.506;10.400;2023-12-20T06:32:08;98038.13;;;3.65;100.00
9423;BME280;65863;49.506;10.400;2023-12-20T06:34:53;98023.00;;;3.55;100.00
9423;BME280;65863;49.506;10.400;2023-12-20T06:37:38;97988.91;;;3.32;100.00
9423;BME280;65863;49.506;10.400;2023-12-20T06:40:25;98047.19;;;3.66;100.00
9423;BME280;65863;49.506;10.400;2023-12-20T06:43:10;98047.19;;;3.77;100.00
9423;BME280;65863;49.506;10.400;2023-12-20T06:45:54;98070.94;;;3.84;100.00
9423;BME280;65863;49.506;10.400;2023-12-20T06:48:38;98043.16;;;3.61;100.00
9423;BME280;65863;49.506;10.400;2023-12-20T06:51:22;98041.16;;;3.61;100.00
9423;BME280;65863;49.506;10.400;2023-12-20T06:54:09;98063.38;;;3.67;100.00
9423;BME280;65863;49.506;10.400;2023-12-20T06:56:52;98081.53;;;3.85;100.00
9423;BME280;65863;49.506;10.400;2023-12-20T06:59:43;98054.28;;;3.72;100.00
9423;BME280;65863;49.506;10.400;2023-12-20T07:02:28;98085.31;;;3.82;100.00
9423;BME280;65863;49.506;10.400;2023-12-20T07:05:16;98055.28;;;3.69;100.00
9423;BME280;65863;49.506;10.400;2023-12-20T07:08:01;98096.44;;;3.88;100.00
9423;BME280;65863;49.506;10.400;2023-12-20T07:10:44;98062.09;;;3.62;100.00
9423;BME280;65863;49.506;10.400;2023-12-20T07:13:29;98108.78;;;3.87;100.00
9423;BME280;65863;49.506;10.400;2023-12-20T07:16:13;98138.84;;;4.05;100.00
9423;BME280;65863;49.506;10.400;2023-12-20T07:18:57;98079.03;;;3.59;100.00
9423;BME280;65863;49.506;10.400;2023-12-20T07:21:41;98134.56;;;3.93;100.00
9423;BME280;65863;49.506;10.400;2023-12-20T07:24:25;98103.75;;;3.79;100.00
9423;BME280;65863;49.506;10.400;2023-12-20T07:27:09;98111.84;;;3.83;100.00
9423;BME280;65863;49.506;10.400;2023-12-20T07:29:54;98098.97;;;3.86;100.00
9423;BME280;65863;49.506;10.400;2023-12-20T07:32:38;98077.50;;;3.69;100.00
9423;BME280;65863;49.506;10.400;2023-12-20T07:35:25;98129.00;;;4.04;100.00
9423;BME280;65863;49.506;10.400;2023-12-20T07:38:09;98101.47;;;3.95;100.00
9423;BME280;65863;49.506;10.400;2023-12-20T07:40:53;98131.78;;;4.16;100.00
9423;BME280;65863;49.506;10.400;2023-12-20T07:43:37;98112.84;;;4.08;100.00
9423;BME280;65863;49.506;10.400;2023-12-20T07:46:22;98112.06;;;4.08;100.00
9423;BME280;65863;49.506;10.400;2023-12-20T07:49:09;98023.50;;;3.48;100.00
9423;BME280;65863;49.506;10.400;2023-12-20T07:52:24;98099.72;;;3.92;100.00
9423;BME280;65863;49.506;10.400;2023-12-20T07:55:08;98092.13;;;3.81;100.00
9423;BME280;65863;49.506;10.400;2023-12-20T07:58:30;98137.06;;;4.02;100.00
9423;BME280;65863;49.506;10.400;2023-12-20T08:01:51;98106.00;;;3.75;100.00
9423;BME280;65863;49.506;10.400;2023-12-20T08:04:36;98118.66;;;3.76;100.00
9423;BME280;65863;49.506;10.400;2023-12-20T08:07:20;98139.84;;;3.91;99.75
9423;BME280;65863;49.506;10.400;2023-12-20T08:10:04;98094.91;;;3.53;100.00
9423;BME280;65863;49.506;10.400;2023-12-20T08:13:26;98115.63;;;3.74;100.00
9423;BME280;65863;49.506;10.400;2023-12-20T08:16:10;98099.19;;;3.54;100.00
9423;BME280;65863;49.506;10.400;2023-12-20T08:18:57;98134.03;;;3.66;100.00
9423;BME280;65863;49.506;10.400;2023-12-20T08:21:41;98142.63;;;3.68;100.00
9423;BME280;65863;49.506;10.400;2023-12-20T08:25:03;98138.81;;;3.71;100.00
9423;BME280;65863;49.506;10.400;2023-12-20T08:27:47;98054.25;;;3.38;99.62
9423;BME280;65863;49.506;10.400;2023-12-20T08:30:31;98129.00;;;4.10;99.24
9423;BME280;65863;49.506;10.400;2023-12-20T08:33:16;98053.53;;;3.49;98.15
9423;BME280;65863;49.506;10.400;2023-12-20T08:36:00;98098.19;;;3.91;98.31
9423;BME280;65863;49.506;10.400;2023-12-20T08:39:22;98123.19;;;4.25;97.45
9423;BME280;65863;49.506;10.400;2023-12-20T08:42:06;98110.53;;;4.29;97.23
9423;BME280;65863;49.506;10.400;2023-12-20T08:44:50;98055.50;;;4.00;96.74
9423;BME280;65863;49.506;10.400;2023-12-20T08:47:34;98097.09;;;4.45;96.60
9423;BME280;65863;49.506;10.400;2023-12-20T08:50:56;98033.28;;;4.05;95.51
9423;BME280;65863;49.506;10.400;2023-12-20T08:53:40;98030.22;;;4.20;94.72
9423;BME280;65863;49.506;10.400;2023-12-20T08:56:39;98066.00;;;4.46;94.04
9423;BME280;65863;49.506;10.400;2023-12-20T08:59:23;98116.38;;;5.02;93.48
9423;BME280;65863;49.506;10.400;2023-12-20T09:02:08;98112.09;;;5.06;91.89
9423;BME280;65863;49.506;10.400;2023-12-20T09:05:29;98084.31;;;4.95;91.86
9423;BME280;65863;49.506;10.400;2023-12-20T09:08:14;98024.03;;;4.56;91.13
9423;BME280;65863;49.506;10.400;2023-12-20T09:11:35;98077.78;;;4.87;90.21
9423;BME280;65863;49.506;10.400;2023-12-20T09:14:19;98046.16;;;4.84;89.79
9423;BME280;65863;49.506;10.400;2023-12-20T09:17:31;98085.53;;;5.05;87.85
9423;BME280;65863;49.506;10.400;2023-12-20T09:20:15;98082.25;;;5.01;87.71
9423;BME280;65863;49.506;10.400;2023-12-20T09:22:59;98079.00;;;4.91;87.75
9423;BME280;65863;49.506;10.400;2023-12-20T09:26:21;98079.00;;;4.91;87.08
9423;BME280;65863;49.506;10.400;2023-12-20T09:29:05;98064.34;;;4.91;86.61
9423;BME280;65863;49.506;10.400;2023-12-20T09:32:27;98092.59;;;5.06;87.05
9423;BME280;65863;49.506;10.400;2023-12-20T09:35:11;98085.25;;;5.03;85.91
9423;BME280;65863;49.506;10.400;2023-12-20T09:38:20;98047.34;;;5.00;85.91
9423;BME280;65863;49.506;10.400;2023-12-20T09:41:04;98101.59;;;5.29;83.87
9423;BME280;65863;49.506;10.400;2023-12-20T09:43:50;98101.16;;;5.14;85.65
9423;BME280;65863;49.506;10.400;2023-12-20T09:47:15;98104.56;;;4.90;85.97
9423;BME280;65863;49.506;10.400;2023-12-20T09:50:02;98093.25;;;4.76;85.33
9423;BME280;65863;49.506;10.400;2023-12-20T09:53:25;98089.72;;;4.64;84.79
9423;BME280;65863;49.506;10.400;2023-12-20T09:56:14;98103.44;;;5.10;85.19
9423;BME280;65863;49.506;10.400;2023-12-20T09:59:16;98073.63;;;5.10;83.58
9423;BME280;65863;49.506;10.400;2023-12-20T10:02:45;98102.31;;;5.30;82.47
9423;BME280;65863;49.506;10.400;2023-12-20T10:06:11;98100.16;;;5.11;83.88
9423;BME280;65863;49.506;10.400;2023-12-20T10:09:33;98101.22;;;4.97;85.42
9423;BME280;65863;49.506;10.400;2023-12-20T10:12:18;98053.84;;;4.61;84.92
9423;BME280;65863;49.506;10.400;2023-12-20T10:15:03;98121.75;;;4.94;84.85
9423;BME280;65863;49.506;10.400;2023-12-20T10:17:48;98081.38;;;4.70;85.57
9423;BME280;65863;49.506;10.400;2023-12-20T10:20:33;98067.75;;;4.61;85.84
9423;BME280;65863;49.506;10.400;2023-12-20T10:23:17;98084.09;;;4.81;86.15
9423;BME280;65863;49.506;10.400;2023-12-20T10:26:01;98099.53;;;4.82;85.97
9423;BME280;65863;49.506;10.400;2023-12-20T10:28:46;98078.06;;;4.72;85.77
9423;BME280;65863;49.506;10.400;2023-12-20T10:31:33;98085.91;;;4.68;86.91
9423;BME280;65863;49.506;10.400;2023-12-20T10:34:18;98065.03;;;4.50;86.48
9423;BME280;65863;49.506;10.400;2023-12-20T10:37:03;98097.03;;;4.73;87.19
9423;BME280;65863;49.506;10.400;2023-12-20T10:39:51;98063.25;;;4.46;88.01
9423;BME280;65863;49.506;10.400;2023-12-20T10:42:37;98046.09;;;4.42;86.94
9423;BME280;65863;49.506;10.400;2023-12-20T10:46:00;98077.34;;;4.65;87.62
9423;BME280;65863;49.506;10.400;2023-12-20T10:48:45;98039.22;;;4.49;87.93
9423;BME280;65863;49.506;10.400;2023-12-20T10:51:31;98065.47;;;4.71;87.56
9423;BME280;65863;49.506;10.400;2023-12-20T10:54:15;98084.06;;;4.93;88.48
9423;BME280;65863;49.506;10.400;2023-12-20T10:56:59;98056.09;;;4.68;87.91
9423;BME280;65863;49.506;10.400;2023-12-20T11:00:23;98058.88;;;4.74;88.46
9423;BME280;65863;49.506;10.400;2023-12-20T11:03:08;98078.53;;;4.81;88.82
9423;BME280;65863;49.506;10.400;2023-12-20T11:06:36;98077.56;;;4.73;88.74
9423;BME280;65863;49.506;10.400;2023-12-20T11:10:24;98080.34;;;4.73;89.10
9423;BME280;65863;49.506;10.400;2023-12-20T11:13:59;98082.38;;;4.67;89.19
9423;BME280;65863;49.506;10.400;2023-12-20T11:17:22;98045.25;;;4.64;90.46
9423;BME280;65863;49.506;10.400;2023-12-20T11:20:07;98075.75;;;4.81;89.89
9423;BME280;65863;49.506;10.400;2023-12-20T11:22:54;98068.19;;;4.82;89.30
9423;BME280;65863;49.506;10.400;2023-12-20T11:26:16;98057.09;;;4.76;89.09
9423;BME280;65863;49.506;10.400;2023-12-20T11:29:29;98062.81;;;4.95;89.20
9423;BME280;65863;49.506;10.400;2023-12-20T11:38:21;98034.94;;;5.01;87.92
9423;BME280;65863;49.506;10.400;2023-12-20T11:41:06;98055.94;;;5.02;88.04
9423;BME280;65863;49.506;10.400;2023-12-20T11:43:53;98010.66;;;4.54;88.04
9423;BME280;65863;49.506;10.400;2023-12-20T11:47:15;98024.16;;;4.80;89.27
9423;BME280;65863;49.506;10.400;2023-12-20T11:50:03;98029.69;;;4.92;88.84
9423;BME280;65863;49.506;10.400;2023-12-20T11:53:25;97937.16;;;4.86;88.14
9423;BME280;65863;49.506;10.400;2023-12-20T11:56:09;98036.22;;;5.72;85.66
9423;BME280;65863;49.506;10.400;2023-12-20T11:59:15;98020.56;;;5.33;85.92
9423;BME280;65863;49.506;10.400;2023-12-20T12:02:37;98011.78;;;5.29;85.43
9423;BME280;65863;49.506;10.400;2023-12-20T12:05:21;97999.75;;;5.09;85.33
9423;BME280;65863;49.506;10.400;2023-12-20T12:08:43;98001.56;;;5.01;85.76
9423;BME280;65863;49.506;10.400;2023-12-20T12:11:27;97976.13;;;4.86;85.50
9423;BME280;65863;49.506;10.400;2023-12-20T12:14:49;98030.31;;;5.15;85.53
9423;BME280;65863;49.506;10.400;2023-12-20T12:17:33;98041.16;;;5.18;84.66
9423;BME280;65863;49.506;10.400;2023-12-20T12:20:19;98056.56;;;5.25;86.30
9423;BME280;65863;49.506;10.400;2023-12-20T12:23:41;98061.75;;;5.04;85.83
9423;BME280;65863;49.506;10.400;2023-12-20T12:26:25;98042.19;;;4.68;87.32
9423;BME280;65863;49.506;10.400;2023-12-20T12:30:04;98057.31;;;4.78;87.58
9423;BME280;65863;49.506;10.400;2023-12-20T12:32:55;98059.34;;;4.78;88.66
9423;BME280;65863;49.506;10.400;2023-12-20T12:35:42;98052.03;;;4.69;88.44
9423;BME280;65863;49.506;10.400;2023-12-20T12:38:27;98040.44;;;4.65;87.65
9423;BME280;65863;49.506;10.400;2023-12-20T12:41:13;98044.19;;;4.73;87.26
9423;BME280;65863;49.506;10.400;2023-12-20T12:44:35;98044.22;;;4.62;85.98
9423;BME280;65863;49.506;10.400;2023-12-20T12:47:19;98008.66;;;4.43;86.35
9423;BME280;65863;49.506;10.400;2023-12-20T12:50:03;98055.84;;;4.66;85.72
9423;BME280;65863;49.506;10.400;2023-12-20T12:52:47;98062.69;;;4.71;86.40
9423;BME280;65863;49.506;10.400;2023-12-20T12:56:09;98032.88;;;4.60;86.77
9423;BME280;65863;49.506;10.400;2023-12-20T12:58:53;98033.41;;;4.53;87.51
9423;BME280;65863;49.506;10.400;2023-12-20T13:01:49;97999.91;;;4.22;88.42
9423;BME280;65863;49.506;10.400;2023-12-20T13:04:33;97980.78;;;3.96;88.07
9423;BME280;65863;49.506;10.400;2023-12-20T13:07:17;98029.88;;;4.46;88.38
9423;BME280;65863;49.506;10.400;2023-12-20T13:10:39;97918.25;;;3.67;88.05
9423;BME280;65863;49.506;10.400;2023-12-20T13:13:23;98011.00;;;4.28;88.14
9423;BME280;65863;49.506;10.400;2023-12-20T13:16:07;98044.22;;;4.62;87.53
9423;BME280;65863;49.506;10.400;2023-12-20T13:18:51;98004.16;;;4.35;87.47
9423;BME280;65863;49.506;10.400;2023-12-20T13:22:13;98006.41;;;4.42;87.17
9423;BME280;65863;49.506;10.400;2023-12-20T13:24:57;98013.72;;;4.45;87.10
9423;BME280;65863;49.506;10.400;2023-12-20T13:27:50;98037.41;;;4.63;86.28
9423;BME280;65863;49.506;10.400;2023-12-20T13:30:34;98001.13;;;4.38;86.27
9423;BME280;65863;49.506;10.400;2023-12-20T13:33:18;98007.91;;;4.43;85.20
9423;BME280;65863;49.506;10.400;2023-12-20T13:36:40;98003.63;;;4.42;86.30
9423;BME280;65863;49.506;10.400;2023-12-20T13:39:24;98015.22;;;4.52;86.99
9423;BME280;65863;49.506;10.400;2023-12-20T13:42:46;97956.78;;;4.04;87.54
9423;BME280;65863;49.506;10.400;2023-12-20T13:45:30;97994.34;;;4.22;87.82
9423;BME280;65863;49.506;10.400;2023-12-20T13:48:42;98027.91;;;4.36;88.41
9423;BME280;65863;49.506;10.400;2023-12-20T13:51:26;97981.53;;;4.02;88.91
9423;BME280;65863;49.506;10.400;2023-12-20T13:54:10;97998.66;;;4.18;89.56
9423;BME280;65863;49.506;10.400;2023-12-20T13:57:32;97996.16;;;4.08;90.46
9423;BME280;65863;49.506;10.400;2023-12-20T14:00:54;98025.38;;;4.32;90.38
9423;BME280;65863;49.506;10.400;2023-12-20T14:04:15;98019.34;;;4.17;91.14
9423;BME280;65863;49.506;10.400;2023-12-20T14:06:59;97997.66;;;4.09;91.80
9423;BME280;65863;49.506;10.400;2023-12-20T14:09:43;97995.66;;;4.04;92.70
9423;BME280;65863;49.506;10.400;2023-12-20T14:12:29;97986.53;;;4.09;92.00
9423;BME280;65863;49.506;10.400;2023-12-20T14:15:13;97963.13;;;3.93;92.82
9423;BME280;65863;49.506;10.400;2023-12-20T14:18:35;97951.81;;;3.74;92.52
9423;BME280;65863;49.506;10.400;2023-12-20T14:21:19;97998.13;;;4.25;92.79
9423;BME280;65863;49.506;10.400;2023-12-20T14:24:03;97938.41;;;3.78;92.06
9423;BME280;65863;49.506;10.400;2023-12-20T14:26:47;97957.78;;;4.01;91.53
9423;BME280;65863;49.506;10.400;2023-12-20T14:30:09;97969.38;;;4.05;91.55
9423;BME280;65863;49.506;10.400;2023-12-20T14:32:53;97938.63;;;3.92;91.91
9423;BME280;65863;49.506;10.400;2023-12-20T14:35:59;97926.00;;;3.91;91.56
9423;BME280;65863;49.506;10.400;2023-12-20T14:38:44;97948.94;;;4.08;91.84
9423;BME280;65863;49.506;10.400;2023-12-20T14:41:28;97915.66;;;3.91;91.00
9423;BME280;65863;49.506;10.400;2023-12-20T14:44:50;97931.31;;;3.94;90.71
9423;BME280;65863;49.506;10.400;2023-12-20T14:47:36;97926.28;;;3.87;91.61
9423;BME280;65863;49.506;10.400;2023-12-20T14:50:58;97930.06;;;3.90;90.77
9423;BME280;65863;49.506;10.400;2023-12-20T14:53:43;97873.59;;;3.59;90.68
9423;BME280;65863;49.506;10.400;2023-12-20T14:57:01;97933.81;;;3.98;90.79
9423;BME280;65863;49.506;10.400;2023-12-20T14:59:45;97938.38;;;3.95;90.46
9423;BME280;65863;49.506;10.400;2023-12-20T15:02:30;97937.38;;;3.87;89.98
9423;BME280;65863;49.506;10.400;2023-12-20T15:05:52;97943.97;;;3.84;90.92
9423;BME280;65863;49.506;10.400;2023-12-20T15:08:36;97924.31;;;3.65;91.04
9423;BME280;65863;49.506;10.400;2023-12-20T15:11:20;97935.91;;;3.69;90.47
9423;BME280;65863;49.506;10.400;2023-12-20T15:14:04;97913.22;;;3.54;90.83
9423;BME280;65863;49.506;10.400;2023-12-20T15:17:25;97914.25;;;3.45;90.82